createdAt,value
2018-06-09T00:00:01.749Z,100405.84
2018-06-09T00:01:05.200Z,100406.64
2018-06-09T00:02:08.630Z,100407.23
2018-06-09T00:03:12.040Z,100397.29
2018-06-09T00:04:15.448Z,100397.88
2018-06-09T00:05:18.891Z,100393.92
2018-06-09T00:06:22.322Z,100396.48
2018-06-09T00:07:25.753Z,100393.71
2018-06-09T00:08:29.163Z,100396.11
2018-06-09T00:09:32.550Z,100396.48
2018-06-09T00:10:35.963Z,100398.09
2018-06-09T00:11:39.402Z,100401.45
2018-06-09T00:12:42.842Z,100401.67
2018-06-09T00:13:46.280Z,100393.13
2018-06-09T00:14:49.708Z,100399.48
2018-06-09T00:15:53.139Z,100391.15
2018-06-09T00:16:56.572Z,100398.09
2018-06-09T00:17:59.996Z,100388.95
2018-06-09T00:19:03.424Z,100392.53
2018-06-09T00:20:06.874Z,100391.73
2018-06-09T00:21:10.262Z,100393.71
2018-06-09T00:22:13.664Z,100383.98
2018-06-09T00:23:17.095Z,100388.95
2018-06-09T00:24:20.498Z,100388.16
2018-06-09T00:25:23.926Z,100388.16
2018-06-09T00:26:27.323Z,100386.77
2018-06-09T00:27:30.731Z,100374.64
2018-06-09T00:28:34.185Z,100372.67
2018-06-09T00:29:37.865Z,100377.05
2018-06-09T00:30:41.311Z,100375.45
2018-06-09T00:31:44.732Z,100371.86
2018-06-09T00:32:48.133Z,100369.89
2018-06-09T00:33:51.540Z,100371.86
2018-06-09T00:34:55.007Z,100369.09
2018-06-09T00:35:58.452Z,100365.51
2018-06-09T00:37:01.887Z,100367.11
2018-06-09T00:38:05.362Z,100361.55
2018-06-09T00:39:08.972Z,100365.51
2018-06-09T00:40:12.350Z,100365.73
2018-06-09T00:41:15.782Z,100365.51
2018-06-09T00:42:19.221Z,100361.34
2018-06-09T00:43:22.634Z,100365.51
2018-06-09T00:44:26.151Z,100365.73
2018-06-09T00:45:29.660Z,100374.05
2018-06-09T00:46:33.111Z,100369.67
2018-06-09T00:47:36.526Z,100373.63
2018-06-09T00:48:39.959Z,100370.27
2018-06-09T00:49:43.365Z,100368.28
2018-06-09T00:50:46.784Z,100370.84
2018-06-09T00:51:50.211Z,100369.67
2018-06-09T00:52:53.635Z,100371.44
2018-06-09T00:53:57.090Z,100369.25
2018-06-09T00:55:00.500Z,100372.02
2018-06-09T00:56:15.251Z,100371.44
2018-06-09T00:57:18.631Z,100374.80
2018-06-09T00:58:22.049Z,100367.86
2018-06-09T00:59:25.460Z,100376.19
2018-06-09T01:00:28.875Z,100376.19
2018-06-09T01:01:32.327Z,100373.63
2018-06-09T01:02:35.710Z,100372.83
2018-06-09T01:03:39.118Z,100374.80
2018-06-09T01:04:43.341Z,100378.97
2018-06-09T01:05:46.757Z,100378.16
2018-06-09T01:06:50.148Z,100377.36
2018-06-09T01:07:53.569Z,100383.13
2018-06-09T01:08:57.004Z,100378.16
2018-06-09T01:10:00.423Z,100387.30
2018-06-09T01:11:03.839Z,100384.30
2018-06-09T01:12:07.239Z,100375.97
2018-06-09T01:13:10.654Z,100378.97
2018-06-09T01:14:14.053Z,100370.42
2018-06-09T01:15:17.441Z,100366.25
2018-06-09T01:16:20.882Z,100371.81
2018-06-09T01:17:24.276Z,100368.23
2018-06-09T01:18:27.760Z,100368.81
2018-06-09T01:19:31.223Z,100367.42
2018-06-09T01:20:34.725Z,100372.39
2018-06-09T01:21:38.106Z,100366.04
2018-06-09T01:22:41.504Z,100371.59
2018-06-09T01:23:44.952Z,100364.66
2018-06-09T01:24:48.345Z,100359.09
2018-06-09T01:25:51.769Z,100356.88
2018-06-09T01:26:55.164Z,100359.09
2018-06-09T01:27:58.585Z,100354.69
2018-06-09T01:29:02.024Z,100360.48
2018-06-09T01:30:05.472Z,100359.09
2018-06-09T01:31:08.886Z,100357.47
2018-06-09T01:32:12.367Z,100358.85
2018-06-09T01:33:15.773Z,100369.37
2018-06-09T01:34:19.177Z,100366.38
2018-06-09T01:35:22.592Z,100365.80
2018-06-09T01:36:26.012Z,100362.80
2018-06-09T01:37:29.518Z,100365.20
2018-06-09T01:38:32.934Z,100366.59
2018-06-09T01:39:36.366Z,100364.99
2018-06-09T01:40:39.774Z,100368.57
2018-06-09T01:41:43.195Z,100368.57
2018-06-09T01:42:46.582Z,100358.64
2018-06-09T01:43:49.957Z,100360.24
2018-06-09T01:44:53.369Z,100361.41
2018-06-09T01:45:56.742Z,100355.86
2018-06-09T01:47:00.140Z,100360.02
2018-06-09T01:48:03.615Z,100362.80
2018-06-09T01:49:07.035Z,100365.58
2018-06-09T01:50:10.459Z,100366.75
2018-06-09T01:51:13.864Z,100366.38
2018-06-09T01:52:17.252Z,100365.58
2018-06-09T01:53:20.652Z,100361.41
2018-06-09T01:54:24.044Z,100364.19
2018-06-09T01:55:27.459Z,100361.41
2018-06-09T01:56:30.892Z,100366.97
2018-06-09T01:57:34.315Z,100358.64
2018-06-09T01:58:37.719Z,100361.41
2018-06-09T01:59:41.123Z,100359.23
2018-06-09T02:00:44.587Z,100359.81
2018-06-09T02:01:47.991Z,100355.64
2018-06-09T02:02:51.403Z,100350.68
2018-06-09T02:03:54.785Z,100359.23
2018-06-09T02:04:58.215Z,100355.44
2018-06-09T02:06:01.616Z,100362.59
2018-06-09T02:07:05.025Z,100353.45
2018-06-09T02:08:08.474Z,100359.01
2018-06-09T02:09:11.865Z,100358.21
2018-06-09T02:10:15.262Z,100353.45
2018-06-09T02:11:18.673Z,100355.22
2018-06-09T02:12:22.320Z,100359.81
2018-06-09T02:13:25.727Z,100356.82
2018-06-09T02:14:29.161Z,100362.37
2018-06-09T02:15:32.554Z,100358.80
2018-06-09T02:16:35.934Z,100362.96
2018-06-09T02:17:39.328Z,100364.56
2018-06-09T02:18:42.733Z,100364.35
2018-06-09T02:19:46.111Z,100367.13
2018-06-09T02:20:49.569Z,100373.27
2018-06-09T02:21:52.942Z,100378.82
2018-06-09T02:22:56.341Z,100378.23
2018-06-09T02:23:59.762Z,100375.83
2018-06-09T02:25:03.282Z,100377.22
2018-06-09T02:26:06.688Z,100376.05
2018-06-09T02:27:10.084Z,100373.27
2018-06-09T02:28:13.507Z,100372.47
2018-06-09T02:29:16.902Z,100376.05
2018-06-09T02:30:20.313Z,100371.08
2018-06-09T02:31:23.720Z,100376.05
2018-06-09T02:32:27.122Z,100370.27
2018-06-09T02:33:30.503Z,100368.30
2018-06-09T02:34:33.900Z,100369.31
2018-06-09T02:35:37.289Z,100369.53
2018-06-09T02:36:40.714Z,100364.19
2018-06-09T02:37:44.127Z,100367.19
2018-06-09T02:38:47.523Z,100364.87
2018-06-09T02:39:50.914Z,100363.11
2018-06-09T02:40:54.350Z,100364.92
2018-06-09T02:41:57.758Z,100367.33
2018-06-09T02:43:01.275Z,100361.40
2018-06-09T02:44:04.696Z,100360.44
2018-06-09T02:45:08.112Z,100362.84
2018-06-09T02:46:11.565Z,100356.91
2018-06-09T02:47:14.995Z,100352.96
2018-06-09T02:48:18.395Z,100353.77
2018-06-09T02:49:21.789Z,100350.64
2018-06-09T02:50:25.225Z,100349.73
2018-06-09T02:51:28.646Z,100356.17
2018-06-09T02:52:32.052Z,100360.77
2018-06-09T02:53:35.430Z,100357.78
2018-06-09T02:54:38.885Z,100359.16
2018-06-09T02:55:42.277Z,100356.39
2018-06-09T02:56:45.692Z,100354.41
2018-06-09T02:57:49.103Z,100362.96
2018-06-09T02:58:52.500Z,100354.49
2018-06-09T02:59:55.889Z,100352.73
2018-06-09T03:00:59.300Z,100352.94
2018-06-09T03:02:02.716Z,100353.74
2018-06-09T03:03:06.129Z,100349.79
2018-06-09T03:04:09.572Z,100349.58
2018-06-09T03:05:12.991Z,100346.80
2018-06-09T03:06:16.403Z,100345.20
2018-06-09T03:07:19.854Z,100347.97
2018-06-09T03:08:23.260Z,100349.36
2018-06-09T03:09:26.683Z,100349.16
2018-06-09T03:10:30.096Z,100347.77
2018-06-09T03:11:33.473Z,100354.70
2018-06-09T03:12:36.885Z,100349.53
2018-06-09T03:13:40.283Z,100352.52
2018-06-09T03:14:43.670Z,100354.84
2018-06-09T03:15:47.079Z,100359.59
2018-06-09T03:16:50.491Z,100354.84
2018-06-09T03:17:53.901Z,100355.42
2018-06-09T03:18:57.277Z,100354.63
2018-06-09T03:20:00.661Z,100360.18
2018-06-09T03:21:04.060Z,100353.61
2018-06-09T03:22:07.462Z,100353.02
2018-06-09T03:23:10.874Z,100357.19
2018-06-09T03:24:14.249Z,100355.59
2018-06-09T03:25:17.686Z,100349.44
2018-06-09T03:26:21.054Z,100349.23
2018-06-09T03:27:24.448Z,100347.84
2018-06-09T03:28:27.879Z,100352.01
2018-06-09T03:29:31.272Z,100348.22
2018-06-09T03:30:34.683Z,100354.78
2018-06-09T03:31:38.108Z,100345.66
2018-06-09T03:32:41.523Z,100342.07
2018-06-09T03:33:44.948Z,100348.22
2018-06-09T03:34:48.358Z,100350.41
2018-06-09T03:35:51.753Z,100355.72
2018-06-09T03:36:55.160Z,100358.73
2018-06-09T03:37:58.639Z,100359.88
2018-06-09T03:39:02.055Z,100361.86
2018-06-09T03:40:05.484Z,100366.03
2018-06-09T03:41:08.880Z,100369.39
2018-06-09T03:42:12.284Z,100365.44
2018-06-09T03:43:15.720Z,100365.44
2018-06-09T03:44:19.143Z,100361.06
2018-06-09T03:45:22.655Z,100361.06
2018-06-09T03:46:26.078Z,100361.27
2018-06-09T03:47:29.511Z,100362.45
2018-06-09T03:48:32.927Z,100356.89
2018-06-09T03:49:36.367Z,100366.03
2018-06-09T03:50:39.750Z,100365.23
2018-06-09T03:51:43.125Z,100366.62
2018-06-09T03:52:46.543Z,100365.44
2018-06-09T03:53:49.972Z,100369.61
2018-06-09T03:54:53.398Z,100370.44
2018-06-09T03:55:56.811Z,100369.05
2018-06-09T03:57:00.189Z,100375.41
2018-06-09T03:58:03.764Z,100377.59
2018-06-09T03:59:07.187Z,100382.56
2018-06-09T04:00:10.604Z,100380.80
2018-06-09T04:01:14.027Z,100380.22
2018-06-09T04:02:17.425Z,100383.20
2018-06-09T04:03:20.835Z,100384.38
2018-06-09T04:04:24.254Z,100380.22
2018-06-09T04:05:27.653Z,100391.76
2018-06-09T04:06:31.105Z,100379.05
2018-06-09T04:07:34.529Z,100384.59
2018-06-09T04:08:37.943Z,100390.74
2018-06-09T04:09:41.356Z,100389.94
2018-06-09T04:10:44.752Z,100390.16
2018-06-09T04:11:48.130Z,100388.55
2018-06-09T04:12:51.540Z,100384.38
2018-06-09T04:13:54.960Z,100388.55
2018-06-09T04:14:58.361Z,100386.57
2018-06-09T04:16:01.775Z,100385.56
2018-06-09T04:17:05.289Z,100387.16
2018-06-09T04:18:08.677Z,100385.56
2018-06-09T04:19:12.080Z,100390.95
2018-06-09T04:20:15.496Z,100388.98
2018-06-09T04:21:18.984Z,100384.01
2018-06-09T04:22:22.451Z,100383.42
2018-06-09T04:23:25.871Z,100385.64
2018-06-09T04:24:29.318Z,100383.42
2018-06-09T04:25:32.751Z,100382.86
2018-06-09T04:26:36.172Z,100382.86
2018-06-09T04:27:39.648Z,100378.11
2018-06-09T04:28:43.110Z,100374.53
2018-06-09T04:29:46.595Z,100379.50
2018-06-09T04:30:50.025Z,100371.97
2018-06-09T04:31:53.508Z,100378.11
2018-06-09T04:32:56.912Z,100378.11
2018-06-09T04:34:00.629Z,100382.49
2018-06-09T04:35:04.042Z,100375.33
2018-06-09T04:36:07.451Z,100381.69
2018-06-09T04:37:10.842Z,100381.91
2018-06-09T04:38:14.251Z,100384.09
2018-06-09T04:39:17.690Z,100381.53
2018-06-09T04:40:21.081Z,100382.70
2018-06-09T04:41:24.488Z,100386.66
2018-06-09T04:42:27.893Z,100379.34
2018-06-09T04:43:31.451Z,100383.29
2018-06-09T04:44:34.834Z,100386.66
2018-06-09T04:45:38.236Z,100387.25
2018-06-09T04:46:41.636Z,100389.44
2018-06-09T04:47:45.031Z,100393.39
2018-06-09T04:48:48.475Z,100390.02
2018-06-09T04:49:51.882Z,100383.66
2018-06-09T04:50:55.336Z,100382.86
2018-06-09T04:51:58.826Z,100383.42
2018-06-09T04:53:02.266Z,100387.59
2018-06-09T04:54:05.850Z,100388.64
2018-06-09T04:55:09.235Z,100388.05
2018-06-09T04:56:12.644Z,100380.89
2018-06-09T04:57:16.072Z,100392.80
2018-06-09T04:58:19.479Z,100392.00
2018-06-09T04:59:22.879Z,100399.16
2018-06-09T05:00:26.271Z,100397.19
2018-06-09T05:01:29.692Z,100399.16
2018-06-09T05:02:33.167Z,100398.36
2018-06-09T05:03:36.713Z,100397.77
2018-06-09T05:04:40.115Z,100395.58
2018-06-09T05:05:43.508Z,100391.41
2018-06-09T05:06:46.933Z,100392.00
2018-06-09T05:07:50.302Z,100394.78
2018-06-09T05:08:53.697Z,100386.44
2018-06-09T05:09:57.078Z,100385.05
2018-06-09T05:11:00.460Z,100391.20
2018-06-09T05:12:03.877Z,100387.03
2018-06-09T05:13:07.254Z,100390.61
2018-06-09T05:14:10.696Z,100387.83
2018-06-09T05:15:14.089Z,100387.46
2018-06-09T05:16:17.472Z,100389.28
2018-06-09T05:17:20.915Z,100386.34
2018-06-09T05:18:24.333Z,100386.34
2018-06-09T05:19:27.729Z,100386.77
2018-06-09T05:20:31.114Z,100382.22
2018-06-09T05:21:34.552Z,100387.41
2018-06-09T05:22:37.950Z,100385.64
2018-06-09T05:23:41.364Z,100378.10
2018-06-09T05:24:44.747Z,100380.53
2018-06-09T05:25:48.142Z,100378.56
2018-06-09T05:26:51.576Z,100379.95
2018-06-09T05:27:54.980Z,100372.41
2018-06-09T05:28:58.399Z,100378.19
2018-06-09T05:30:01.800Z,100376.20
2018-06-09T05:31:05.207Z,100377.59
2018-06-09T05:32:08.619Z,100372.84
2018-06-09T05:33:12.149Z,100376.80
2018-06-09T05:34:15.565Z,100377.59
2018-06-09T05:35:18.934Z,100375.99
2018-06-09T05:36:22.746Z,100373.59
2018-06-09T05:37:26.134Z,100379.95
2018-06-09T05:38:29.595Z,100378.77
2018-06-09T05:39:36.147Z,100381.77
2018-06-09T05:40:42.333Z,100388.12
2018-06-09T05:41:54.656Z,100382.56
2018-06-09T05:43:01.283Z,100379.41
2018-06-09T05:44:04.710Z,100378.61
2018-06-09T05:45:08.097Z,100375.24
2018-06-09T05:46:11.577Z,100380.22
2018-06-09T05:47:15.015Z,100376.63
2018-06-09T05:48:18.420Z,100380.80
2018-06-09T05:49:21.856Z,100379.41
2018-06-09T05:50:25.267Z,100384.38
2018-06-09T05:51:28.693Z,100385.77
2018-06-09T05:52:32.307Z,100391.33
2018-06-09T05:53:35.735Z,100387.75
2018-06-09T05:54:39.178Z,100384.17
2018-06-09T05:55:42.577Z,100389.14
2018-06-09T05:56:45.970Z,100390.91
2018-06-09T05:57:49.797Z,100392.51
2018-06-09T05:58:53.283Z,100394.70
2018-06-09T05:59:56.686Z,100395.88
2018-06-09T06:01:00.400Z,100390.31
2018-06-09T06:02:03.822Z,100395.28
2018-06-09T06:03:07.306Z,100386.95
2018-06-09T06:04:10.763Z,100396.09
2018-06-09T06:05:14.165Z,100397.48
2018-06-09T06:06:17.579Z,100390.91
2018-06-09T06:07:21.002Z,100395.66
2018-06-09T06:08:24.426Z,100399.62
2018-06-09T06:09:28.239Z,100398.60
2018-06-09T06:10:31.707Z,100403.57
2018-06-09T06:11:38.468Z,100404.50
2018-06-09T06:12:42.522Z,100408.91
2018-06-09T06:13:47.448Z,100408.09
2018-06-09T06:14:50.980Z,100406.27
2018-06-09T06:15:54.608Z,100415.19
2018-06-09T06:16:58.107Z,100413.37
2018-06-09T06:18:01.551Z,100409.58
2018-06-09T06:19:05.210Z,100409.16
2018-06-09T06:20:09.714Z,100413.11
2018-06-09T06:21:13.140Z,100417.86
2018-06-09T06:22:22.021Z,100417.06
2018-06-09T06:23:26.478Z,100411.66
2018-06-09T06:24:33.400Z,100420.59
2018-06-09T06:25:36.828Z,100428.92
2018-06-09T06:26:40.244Z,100424.54
2018-06-09T06:27:43.637Z,100424.88
2018-06-09T06:28:47.043Z,100424.88
2018-06-09T06:29:50.489Z,100426.64
2018-06-09T06:30:56.235Z,100431.61
2018-06-09T06:31:59.703Z,100429.42
2018-06-09T06:33:03.135Z,100429.80
2018-06-09T06:34:06.569Z,100434.17
2018-06-09T06:35:10.041Z,100431.40
2018-06-09T06:36:13.468Z,100429.85
2018-06-09T06:37:16.881Z,100431.48
2018-06-09T06:38:20.263Z,100425.55
2018-06-09T06:39:23.654Z,100425.77
2018-06-09T06:40:27.099Z,100422.98
2018-06-09T06:41:30.533Z,100427.96
2018-06-09T06:42:33.955Z,100424.81
2018-06-09T06:43:37.386Z,100437.31
2018-06-09T06:44:40.800Z,100433.73
2018-06-09T06:45:49.989Z,100442.06
2018-06-09T06:46:53.438Z,100438.48
2018-06-09T06:47:56.838Z,100436.30
2018-06-09T06:49:00.253Z,100437.69
2018-06-09T06:50:03.719Z,100436.52
2018-06-09T06:51:07.162Z,100441.48
2018-06-09T06:52:10.568Z,100437.90
2018-06-09T06:53:13.992Z,100435.92
2018-06-09T06:54:17.416Z,100431.17
2018-06-09T06:55:20.820Z,100435.92
2018-06-09T06:56:24.237Z,100437.53
2018-06-09T06:57:27.669Z,100431.17
2018-06-09T06:58:31.068Z,100440.09
2018-06-09T06:59:34.512Z,100441.70
2018-06-09T07:00:37.925Z,100443.88
2018-06-09T07:01:41.353Z,100448.27
2018-06-09T07:02:44.738Z,100450.46
2018-06-09T07:03:48.125Z,100449.07
2018-06-09T07:04:51.548Z,100443.73
2018-06-09T07:05:54.975Z,100444.31
2018-06-09T07:06:58.378Z,100445.11
2018-06-09T07:08:01.797Z,100441.53
2018-06-09T07:09:07.819Z,100442.34
2018-06-09T07:10:11.239Z,100447.89
2018-06-09T07:11:14.659Z,100442.34
2018-06-09T07:12:18.160Z,100444.31
2018-06-09T07:13:21.555Z,100445.11
2018-06-09T07:14:24.982Z,100447.68
2018-06-09T07:15:28.374Z,100446.50
2018-06-09T07:16:32.056Z,100440.73
2018-06-09T07:17:39.292Z,100438.55
2018-06-09T07:18:42.723Z,100436.34
2018-06-09T07:19:46.129Z,100436.56
2018-06-09T07:20:49.527Z,100442.34
2018-06-09T07:21:52.956Z,100439.56
2018-06-09T07:22:56.381Z,100441.38
2018-06-09T07:23:59.777Z,100439.98
2018-06-09T07:25:03.181Z,100443.56
2018-06-09T07:26:06.641Z,100445.33
2018-06-09T07:27:10.057Z,100447.31
2018-06-09T07:28:13.460Z,100449.07
2018-06-09T07:29:16.872Z,100445.86
2018-06-09T07:30:20.298Z,100442.87
2018-06-09T07:31:23.698Z,100444.63
2018-06-09T07:32:27.175Z,100449.97
2018-06-09T07:33:30.569Z,100448.95
2018-06-09T07:34:34.011Z,100451.27
2018-06-09T07:35:37.432Z,100446.52
2018-06-09T07:36:41.027Z,100445.29
2018-06-09T07:37:44.460Z,100444.19
2018-06-09T07:38:47.899Z,100442.95
2018-06-09T07:39:51.288Z,100437.34
2018-06-09T07:40:54.690Z,100444.41
2018-06-09T07:41:58.166Z,100434.25
2018-06-09T07:43:01.565Z,100439.97
2018-06-09T07:44:05.076Z,100448.08
2018-06-09T07:45:08.495Z,100445.67
2018-06-09T07:46:11.940Z,100443.70
2018-06-09T07:47:15.379Z,100448.45
2018-06-09T07:48:18.781Z,100438.89
2018-06-09T07:49:22.177Z,100439.32
2018-06-09T07:50:25.592Z,100440.55
2018-06-09T07:51:28.996Z,100439.22
2018-06-09T07:52:32.434Z,100440.45
2018-06-09T07:53:35.822Z,100442.65
2018-06-09T07:54:39.229Z,100444.71
2018-06-09T07:55:42.625Z,100444.92
2018-06-09T07:56:46.026Z,100448.13
2018-06-09T07:57:49.404Z,100447.55
2018-06-09T07:58:53.375Z,100440.81
2018-06-09T07:59:56.840Z,100443.01
2018-06-09T08:01:00.264Z,100446.59
2018-06-09T08:02:03.692Z,100444.39
2018-06-09T08:03:07.156Z,100444.39
2018-06-09T08:04:10.647Z,100442.42
2018-06-09T08:05:14.066Z,100447.39
2018-06-09T08:06:17.555Z,100444.39
2018-06-09T08:07:20.943Z,100445.66
2018-06-09T08:08:24.340Z,100446.46
2018-06-09T08:09:28.031Z,100451.64
2018-06-09T08:10:31.423Z,100447.27
2018-06-09T08:11:35.021Z,100451.64
2018-06-09T08:12:38.451Z,100446.30
2018-06-09T08:13:41.949Z,100442.51
2018-06-09T08:14:45.338Z,100440.91
2018-06-09T08:15:48.795Z,100438.50
2018-06-09T08:16:52.234Z,100442.42
2018-06-09T08:17:55.677Z,100440.02
2018-06-09T08:18:59.089Z,100437.39
2018-06-09T08:20:02.493Z,100440.77
2018-06-09T08:21:05.919Z,100440.77
2018-06-09T08:22:09.342Z,100441.99
2018-06-09T08:23:12.736Z,100441.99
2018-06-09T08:24:16.175Z,100442.20
2018-06-09T08:25:19.575Z,100444.39
2018-06-09T08:26:23.192Z,100442.20
2018-06-09T08:27:29.983Z,100442.20
2018-06-09T08:28:33.412Z,100446.84
2018-06-09T08:29:36.820Z,100451.22
2018-06-09T08:30:40.264Z,100450.41
2018-06-09T08:31:43.684Z,100442.08
2018-06-09T08:32:47.100Z,100435.56
2018-06-09T08:33:50.525Z,100438.34
2018-06-09T08:34:53.939Z,100446.89
2018-06-09T08:35:57.377Z,100446.89
2018-06-09T08:37:00.838Z,100448.50
2018-06-09T08:38:04.253Z,100441.55
2018-06-09T08:39:08.075Z,100443.16
2018-06-09T08:40:11.502Z,100442.94
2018-06-09T08:41:14.946Z,100444.11
2018-06-09T08:42:18.406Z,100441.34
2018-06-09T08:43:22.431Z,100436.95
2018-06-09T08:44:25.914Z,100437.76
2018-06-09T08:45:29.370Z,100435.56
2018-06-09T08:46:32.790Z,100443.09
2018-06-09T08:47:36.208Z,100442.30
2018-06-09T08:48:39.632Z,100441.70
2018-06-09T08:49:43.075Z,100440.32
2018-06-09T08:50:46.516Z,100438.34
2018-06-09T08:51:49.957Z,100443.09
2018-06-09T08:52:53.404Z,100440.91
2018-06-09T08:53:56.839Z,100436.74
2018-06-09T08:55:04.812Z,100438.34
2018-06-09T08:56:08.215Z,100437.54
2018-06-09T08:57:11.639Z,100446.25
2018-06-09T08:58:15.051Z,100442.42
2018-06-09T08:59:18.485Z,100441.62
2018-06-09T09:00:21.893Z,100440.55
2018-06-09T09:01:25.366Z,100444.28
2018-06-09T09:02:28.788Z,100440.83
2018-06-09T09:03:32.216Z,100439.22
2018-06-09T09:04:35.621Z,100440.40
2018-06-09T09:05:39.030Z,100441.78
2018-06-09T09:06:42.461Z,100436.02
2018-06-09T09:07:45.877Z,100438.20
2018-06-09T09:08:49.296Z,100436.23
2018-06-09T09:09:52.718Z,100442.00
2018-06-09T09:10:56.138Z,100437.63
2018-06-09T09:11:59.576Z,100442.59
2018-06-09T09:13:02.991Z,100433.67
2018-06-09T09:14:06.463Z,100436.08
2018-06-09T09:15:09.875Z,100430.52
2018-06-09T09:16:13.461Z,100437.67
2018-06-09T09:17:16.908Z,100429.72
2018-06-09T09:18:20.290Z,100430.30
2018-06-09T09:19:23.704Z,100424.16
2018-06-09T09:20:27.102Z,100425.34
2018-06-09T09:21:30.515Z,100429.93
2018-06-09T09:22:33.947Z,100426.35
2018-06-09T09:23:37.436Z,100430.14
2018-06-09T09:24:40.850Z,100429.00
2018-06-09T09:25:44.238Z,100432.00
2018-06-09T09:26:47.704Z,100428.84
2018-06-09T09:27:51.141Z,100426.44
2018-06-09T09:28:54.583Z,100431.03
2018-06-09T09:29:58.859Z,100432.21
2018-06-09T09:31:02.299Z,100431.62
2018-06-09T09:32:05.765Z,100432.00
2018-06-09T09:33:10.130Z,100426.23
2018-06-09T09:34:13.657Z,100430.61
2018-06-09T09:35:17.650Z,100428.41
2018-06-09T09:36:21.405Z,100428.76
2018-06-09T09:37:24.985Z,100427.95
2018-06-09T09:38:28.658Z,100429.93
2018-06-09T09:39:32.818Z,100427.74
2018-06-09T09:40:36.733Z,100423.36
2018-06-09T09:41:40.664Z,100425.12
2018-06-09T09:42:44.612Z,100427.90
2018-06-09T09:43:48.251Z,100423.73
2018-06-09T09:44:52.044Z,100425.49
2018-06-09T09:45:55.664Z,100424.91
2018-06-09T09:46:59.237Z,100421.91
2018-06-09T09:48:03.249Z,100417.53
2018-06-09T09:49:06.992Z,100423.09
2018-06-09T09:50:10.734Z,100421.48
2018-06-09T09:51:14.224Z,100417.91
2018-06-09T09:52:17.908Z,100417.10
2018-06-09T09:53:21.545Z,100418.48
2018-06-09T09:54:25.704Z,100416.89
2018-06-09T09:55:29.377Z,100421.05
2018-06-09T09:56:33.905Z,100419.66
2018-06-09T09:57:48.831Z,100421.64
2018-06-09T09:58:54.753Z,100415.06
2018-06-09T09:59:58.265Z,100423.61
2018-06-09T10:01:02.381Z,100428.37
2018-06-09T10:02:06.358Z,100420.63
2018-06-09T10:03:10.598Z,100420.63
2018-06-09T10:04:14.430Z,100422.59
2018-06-09T10:05:18.205Z,100420.19
2018-06-09T10:06:21.673Z,100424.57
2018-06-09T10:07:25.817Z,100420.19
2018-06-09T10:08:30.334Z,100415.19
2018-06-09T10:09:34.939Z,100417.63
2018-06-09T10:10:38.908Z,100417.41
2018-06-09T10:11:42.575Z,100417.41
2018-06-09T10:12:46.994Z,100421.80
2018-06-09T10:13:51.003Z,100419.36
2018-06-09T10:14:54.638Z,100417.41
2018-06-09T10:16:09.241Z,100418.80
2018-06-09T10:17:13.011Z,100418.80
2018-06-09T10:18:16.988Z,100414.39
2018-06-09T10:19:20.388Z,100418.80
2018-06-09T10:20:23.812Z,100408.25
2018-06-09T10:21:27.329Z,100414.64
2018-06-09T10:22:30.914Z,100403.28
2018-06-09T10:23:34.409Z,100411.61
2018-06-09T10:24:37.921Z,100409.08
2018-06-09T10:25:41.397Z,100412.78
2018-06-09T10:26:48.370Z,100407.45
2018-06-09T10:27:56.477Z,100408.03
2018-06-09T10:29:00.004Z,100410.81
2018-06-09T10:30:03.703Z,100409.42
2018-06-09T10:31:07.272Z,100418.55
2018-06-09T10:32:10.955Z,100410.47
2018-06-09T10:33:14.494Z,100406.86
2018-06-09T10:34:17.892Z,100406.30
2018-06-09T10:35:21.320Z,100409.08
2018-06-09T10:36:24.880Z,100409.08
2018-06-09T10:37:28.596Z,100411.86
2018-06-09T10:38:32.361Z,100406.30
2018-06-09T10:39:35.933Z,100406.30
2018-06-09T10:40:39.491Z,100408.25
2018-06-09T10:41:42.984Z,100410.69
2018-06-09T10:42:46.413Z,100406.30
2018-06-09T10:43:49.809Z,100411.27
2018-06-09T10:44:53.292Z,100409.08
2018-06-09T10:45:57.085Z,100404.91
2018-06-09T10:47:00.513Z,100407.69
2018-06-09T10:48:04.002Z,100407.33
2018-06-09T10:49:07.441Z,100406.86
2018-06-09T10:50:11.246Z,100407.11
2018-06-09T10:51:14.690Z,100408.71
2018-06-09T10:52:18.241Z,100410.10
2018-06-09T10:53:21.655Z,100405.56
2018-06-09T10:54:25.398Z,100410.31
2018-06-09T10:55:28.893Z,100407.75
2018-06-09T10:56:32.368Z,100404.17
2018-06-09T10:57:36.170Z,100400.66
2018-06-09T10:58:39.501Z,100405.03
2018-06-09T10:59:42.940Z,100409.20
2018-06-09T11:00:46.379Z,100408.83
2018-06-09T11:01:49.808Z,100402.47
2018-06-09T11:02:53.278Z,100406.64
2018-06-09T11:03:57.703Z,100412.41
2018-06-09T11:05:01.212Z,100409.41
2018-06-09T11:06:04.721Z,100405.25
2018-06-09T11:07:08.126Z,100406.85
2018-06-09T11:08:11.700Z,100397.13
2018-06-09T11:09:15.128Z,100397.13
2018-06-09T11:10:18.549Z,100397.56
2018-06-09T11:11:21.964Z,100399.16
2018-06-09T11:12:25.393Z,100398.58
2018-06-09T11:13:28.832Z,100399.37
2018-06-09T11:14:32.225Z,100396.81
2018-06-09T11:15:35.609Z,100389.07
2018-06-09T11:16:39.142Z,100391.05
2018-06-09T11:17:42.541Z,100389.07
2018-06-09T11:18:45.987Z,100387.68
2018-06-09T11:19:49.424Z,100385.95
2018-06-09T11:20:52.952Z,100383.60
2018-06-09T11:21:56.399Z,100387.98
2018-06-09T11:22:59.825Z,100389.80
2018-06-09T11:24:03.473Z,100392.80
2018-06-09T11:25:06.881Z,100385.84
2018-06-09T11:26:10.326Z,100388.41
2018-06-09T11:27:13.744Z,100385.63
2018-06-09T11:28:19.147Z,100383.23
2018-06-09T11:29:22.583Z,100380.02
2018-06-09T11:30:26.104Z,100380.61
2018-06-09T11:31:29.564Z,100379.56
2018-06-09T11:32:32.985Z,100379.13
2018-06-09T11:33:36.642Z,100381.78
2018-06-09T11:34:40.149Z,100381.33
2018-06-09T11:35:43.612Z,100381.54
2018-06-09T11:36:47.037Z,100379.13
2018-06-09T11:37:50.461Z,100372.41
2018-06-09T11:38:54.130Z,100377.16
2018-06-09T11:39:57.771Z,100378.55
2018-06-09T11:41:01.328Z,100383.17
2018-06-09T11:42:04.769Z,100375.40
2018-06-09T11:43:08.341Z,100377.38
2018-06-09T11:44:11.888Z,100371.23
2018-06-09T11:45:15.326Z,100371.23
2018-06-09T11:46:18.759Z,100373.20
2018-06-09T11:47:22.158Z,100370.43
2018-06-09T11:48:25.558Z,100377.38
2018-06-09T11:49:29.037Z,100369.04
2018-06-09T11:50:32.495Z,100373.20
2018-06-09T11:51:35.892Z,100374.59
2018-06-09T11:52:39.354Z,100369.28
2018-06-09T11:53:42.757Z,100370.67
2018-06-09T11:54:46.164Z,100369.50
2018-06-09T11:55:49.600Z,100358.39
2018-06-09T11:56:53.038Z,100361.16
2018-06-09T11:57:56.547Z,100358.98
2018-06-09T11:58:59.970Z,100362.77
2018-06-09T12:00:03.503Z,100353.26
2018-06-09T12:01:06.951Z,100355.83
2018-06-09T12:02:10.372Z,100356.84
2018-06-09T12:03:13.791Z,100354.65
2018-06-09T12:04:17.240Z,100351.88
2018-06-09T12:05:20.681Z,100355.83